Time;durP1;ratioP1;P1;durP2;ratioP2;P2;SDS_P1;SDS_P2;PMS_P1;PMS_P2;Temp;Humidity;BMP_temperature;BMP_pressure;BME280_temperature;BME280_humidity;BME280_pressure;Samples;Min_cycle;Max_cycle;Signal;HPM_P1;HPM_P2
2022/04/11 00:01:57;;;;;;;9.23;7.03;;;22.90;99.90;;;;;;5042466;28;20029;-66
2022/04/11 00:04:24;;;;;;;7.63;6.80;;;23.10;99.90;;;;;;5045550;28;20048;-65
2022/04/11 00:06:51;;;;;;;7.07;6.25;;;23.30;99.90;;;;;;5040001;28;20071;-65
2022/04/11 00:09:18;;;;;;;7.63;6.57;;;23.50;99.90;;;;;;5042665;28;20033;-66
2022/04/11 00:11:46;;;;;;;6.20;5.60;;;23.60;99.90;;;;;;5040041;28;20028;-65
2022/04/11 00:14:14;;;;;;;5.90;5.30;;;23.90;99.90;;;;;;5040290;28;20017;-64
2022/04/11 00:16:41;;;;;;;6.95;6.25;;;24.00;99.90;;;;;;5043589;28;20359;-68
2022/04/11 00:19:11;;;;;;;6.75;4.97;;;24.30;99.90;;;;;;5043792;28;20439;-67
2022/04/11 00:21:38;;;;;;;7.72;6.00;;;24.60;99.90;;;;;;5041655;28;20022;-67
2022/04/11 00:24:05;;;;;;;10.77;6.65;;;24.80;99.90;;;;;;5045304;28;20029;-70
2022/04/11 00:26:32;;;;;;;7.53;5.65;;;24.90;99.90;;;;;;5039702;28;20138;-73
2022/04/11 00:28:59;;;;;;;5.63;5.13;;;25.10;99.90;;;;;;5041752;28;20025;-74
2022/04/11 00:31:26;;;;;;;7.13;4.72;;;25.20;99.90;;;;;;5042889;28;20379;-68
2022/04/11 00:33:53;;;;;;;5.20;4.75;;;25.40;99.90;;;;;;5042450;28;20049;-71
2022/04/11 00:36:20;;;;;;;7.63;4.57;;;25.60;99.90;;;;;;5046543;28;20039;-68
2022/04/11 00:38:47;;;;;;;4.50;3.92;;;25.80;99.90;;;;;;5039750;28;20040;-71
2022/04/11 00:41:14;;;;;;;8.40;7.57;;;25.80;99.90;;;;;;5041882;28;20027;-69
2022/04/11 00:43:41;;;;;;;7.20;6.45;;;26.00;99.90;;;;;;5039514;28;20021;-70
2022/04/11 00:46:10;;;;;;;5.30;4.20;;;26.30;99.90;;;;;;5040794;28;20084;-68
2022/04/11 00:48:38;;;;;;;5.03;4.40;;;26.30;99.90;;;;;;5041758;28;20131;-68
2022/04/11 00:51:18;;;;;;;6.00;4.40;;;26.50;99.90;;;;;;5040722;28;20108;-72
2022/04/11 00:53:47;;;;;;;3.75;3.25;;;26.70;99.90;;;;;;5043000;28;20174;-69
2022/04/11 00:56:18;;;;;;;5.07;3.97;;;27.00;99.90;;;;;;5043287;28;20389;-68
2022/04/11 00:58:47;;;;;;;4.57;3.38;;;27.10;99.90;;;;;;5042075;28;20158;-71
2022/04/11 01:01:16;;;;;;;7.55;4.75;;;27.30;99.90;;;;;;5041895;28;20487;-67
2022/04/11 01:03:43;;;;;;;5.22;4.03;;;27.40;99.90;;;;;;5042168;28;20108;-69
2022/04/11 01:06:10;;;;;;;3.67;3.35;;;27.30;99.90;;;;;;5043221;28;20057;-67
2022/04/11 01:08:37;;;;;;;4.72;3.85;;;27.30;99.90;;;;;;5042669;28;20170;-67
2022/04/11 01:11:05;;;;;;;4.65;3.70;;;27.40;99.90;;;;;;4344795;28;10000575;-67
2022/04/11 01:13:32;;;;;;;5.18;3.38;;;27.40;99.90;;;;;;5040353;28;20424;-68
2022/04/11 01:16:02;;;;;;;4.80;4.28;;;27.50;99.90;;;;;;5041982;28;20423;-71
2022/04/11 01:18:34;;;;;;;3.83;3.20;;;27.80;99.90;;;;;;5040121;28;20024;-69
2022/04/11 01:21:02;;;;;;;5.78;3.08;;;28.20;99.90;;;;;;5038919;28;20031;-69
2022/04/11 01:23:29;;;;;;;4.28;3.45;;;28.40;99.90;;;;;;5038751;28;20111;-68
2022/04/11 01:25:57;;;;;;;4.10;3.70;;;28.20;99.90;;;;;;5038804;28;20029;-74
2022/04/11 01:28:24;;;;;;;4.95;3.33;;;28.40;99.90;;;;;;5041007;28;20025;-69
2022/04/11 01:30:56;;;;;;;3.42;2.50;;;28.60;99.90;;;;;;5036659;28;20322;-68
2022/04/11 01:33:28;;;;;;;4.07;2.00;;;28.90;99.90;;;;;;5036149;28;20532;-68
2022/04/11 01:35:56;;;;;;;4.07;2.47;;;29.10;99.90;;;;;;5040374;28;20499;-68
2022/04/11 01:38:22;;;;;;;2.45;2.20;;;29.30;99.90;;;;;;5040036;28;20427;-70
2022/04/11 01:40:54;;;;;;;4.05;2.08;;;29.10;99.90;;;;;;5038266;28;20037;-69
2022/04/11 01:43:22;;;;;;;4.22;1.77;;;29.30;99.90;;;;;;5037804;28;20035;-68
2022/04/11 01:45:50;;;;;;;4.20;2.20;;;29.50;99.90;;;;;;5041689;28;20028;-70
2022/04/11 01:48:17;;;;;;;2.03;1.80;;;29.60;99.90;;;;;;5041433;28;20150;-75
2022/04/11 01:50:44;;;;;;;2.17;1.42;;;29.70;99.90;;;;;;5038201;28;20059;-69
2022/04/11 01:53:14;;;;;;;4.20;1.77;;;29.70;99.90;;;;;;5037814;28;20047;-70
2022/04/11 01:55:41;;;;;;;1.90;1.40;;;29.50;99.90;;;;;;5053263;28;20030;-71
2022/04/11 01:58:09;;;;;;;2.30;1.23;;;29.40;99.90;;;;;;5040372;28;20474;-74
2022/04/11 02:00:37;;;;;;;3.35;1.40;;;29.70;99.00;;;;;;5038349;28;20622;-71
2022/04/11 02:03:06;;;;;;;1.38;1.08;;;29.70;99.10;;;;;;5039534;28;20029;-71
2022/04/11 02:05:34;;;;;;;2.78;1.60;;;29.60;99.00;;;;;;5040502;28;20040;-67
2022/04/11 02:08:03;;;;;;;3.10;1.30;;;29.60;99.50;;;;;;5042226;28;20033;-68
2022/04/11 02:10:30;;;;;;;1.63;1.20;;;29.40;99.20;;;;;;5041438;28;20139;-72
2022/04/11 02:12:58;;;;;;;4.20;1.73;;;29.50;99.50;;;;;;5038568;28;20578;-71
2022/04/11 02:15:25;;;;;;;2.30;1.13;;;29.60;99.80;;;;;;5040605;28;21405;-68
2022/04/11 02:17:52;;;;;;;2.80;1.52;;;29.70;99.70;;;;;;5040634;28;20021;-73
2022/04/11 02:20:19;;;;;;;2.97;1.45;;;29.90;99.00;;;;;;5038779;28;20040;-68
2022/04/11 02:22:47;;;;;;;1.60;1.20;;;29.90;99.10;;;;;;5038455;28;20387;-69
2022/04/11 02:25:16;;;;;;;3.95;1.48;;;30.00;98.80;;;;;;5036480;28;20040;-72
2022/04/11 02:27:44;;;;;;;4.88;1.60;;;30.30;98.10;;;;;;5042694;28;20428;-72
2022/04/11 02:30:13;;;;;;;2.65;1.48;;;30.20;98.10;;;;;;5039210;28;20017;-67
2022/04/11 02:32:41;;;;;;;2.13;1.58;;;30.10;98.80;;;;;;5040392;28;20021;-73
2022/04/11 02:35:08;;;;;;;2.33;1.63;;;30.50;98.20;;;;;;5038176;28;20017;-68
2022/04/11 02:37:36;;;;;;;1.58;1.38;;;30.60;98.30;;;;;;5040289;28;20068;-68
2022/04/11 02:40:05;;;;;;;3.03;1.30;;;30.60;98.10;;;;;;5038736;28;20499;-68
2022/04/11 02:42:32;;;;;;;1.15;1.00;;;30.80;98.20;;;;;;5039558;28;20391;-68
2022/04/11 02:44:59;;;;;;;1.23;0.70;;;30.90;96.70;;;;;;5035990;28;20471;-68
2022/04/11 02:47:27;;;;;;;1.02;0.70;;;30.60;94.90;;;;;;5041237;28;20040;-73
2022/04/11 02:49:54;;;;;;;1.45;0.75;;;29.90;95.50;;;;;;5040089;28;20387;-68
2022/04/11 02:52:21;;;;;;;1.88;0.80;;;29.90;95.40;;;;;;5040217;28;20073;-69
2022/04/11 02:54:48;;;;;;;1.67;0.90;;;30.00;94.10;;;;;;5039670;28;20448;-68
2022/04/11 02:57:15;;;;;;;1.13;0.70;;;29.80;94.30;;;;;;5041495;28;20036;-69
2022/04/11 02:59:42;;;;;;;0.80;0.70;;;29.90;94.00;;;;;;5040519;28;20028;-73
2022/04/11 03:02:09;;;;;;;2.05;0.70;;;29.30;93.90;;;;;;5040915;28;20021;-69
2022/04/11 03:04:36;;;;;;;3.38;0.60;;;29.30;95.10;;;;;;5039916;28;20479;-71
2022/04/11 03:07:03;;;;;;;2.22;0.80;;;29.70;94.30;;;;;;5038710;28;20135;-73
2022/04/11 03:09:30;;;;;;;1.98;0.77;;;30.00;93.70;;;;;;5038507;28;20060;-71
2022/04/11 03:11:57;;;;;;;1.85;0.57;;;30.40;94.30;;;;;;5044699;28;20367;-72
2022/04/11 03:14:25;;;;;;;1.02;0.52;;;30.60;93.30;;;;;;5045972;28;20539;-69
2022/04/11 03:16:52;;;;;;;2.13;0.93;;;30.60;93.30;;;;;;5042747;28;20071;-69
2022/04/11 03:19:20;;;;;;;0.80;0.50;;;30.60;93.30;;;;;;5042923;28;20773;-71
2022/04/11 03:21:49;;;;;;;1.73;0.80;;;30.70;92.60;;;;;;5042083;28;20105;-69
2022/04/11 03:24:16;;;;;;;3.08;1.13;;;31.00;92.20;;;;;;5042352;28;20036;-71
2022/04/11 03:26:43;;;;;;;1.08;0.73;;;30.60;91.50;;;;;;5039848;28;20041;-72
2022/04/11 03:29:10;;;;;;;2.05;0.70;;;30.80;91.30;;;;;;5041096;28;20052;-68
2022/04/11 03:31:40;;;;;;;1.17;0.70;;;30.90;91.60;;;;;;5040367;28;20555;-73
2022/04/11 03:34:07;;;;;;;0.80;0.60;;;31.00;90.80;;;;;;5043394;28;20533;-73
2022/04/11 03:36:34;;;;;;;0.68;0.68;;;30.90;90.60;;;;;;5041519;28;20086;-68
2022/04/11 03:39:01;;;;;;;1.45;0.55;;;30.50;91.20;;;;;;5043212;28;20040;-72
2022/04/11 03:41:29;;;;;;;2.17;0.70;;;30.50;90.90;;;;;;5043672;28;20029;-69
2022/04/11 03:43:56;;;;;;;1.77;0.85;;;30.40;91.50;;;;;;5043994;28;20103;-70
2022/04/11 03:46:23;;;;;;;2.00;0.85;;;30.50;91.20;;;;;;5045196;28;20036;-69
2022/04/11 03:48:50;;;;;;;1.02;0.68;;;30.90;91.90;;;;;;5042735;28;20162;-73
2022/04/11 03:51:17;;;;;;;1.67;0.60;;;31.00;91.20;;;;;;5041774;28;20036;-68
2022/04/11 03:53:44;;;;;;;0.77;0.60;;;31.10;91.10;;;;;;5042104;28;20613;-72
2022/04/11 03:56:13;;;;;;;2.90;1.00;;;31.40;91.20;;;;;;5045355;28;20091;-71
2022/04/11 03:58:41;;;;;;;0.65;0.50;;;31.50;90.30;;;;;;5042984;28;20463;-68
2022/04/11 04:01:08;;;;;;;0.47;0.47;;;31.50;90.90;;;;;;5044286;28;20075;-70
2022/04/11 04:03:35;;;;;;;1.75;0.60;;;31.60;90.80;;;;;;5044485;28;20063;-67
2022/04/11 04:06:02;;;;;;;2.13;1.05;;;31.60;90.40;;;;;;5044694;28;20068;-70
2022/04/11 04:08:29;;;;;;;1.80;1.00;;;31.60;90.30;;;;;;5043577;28;20037;-70
2022/04/11 04:10:56;;;;;;;2.78;1.20;;;31.40;90.10;;;;;;5041858;28;20462;-70
2022/04/11 04:13:22;;;;;;;2.13;0.93;;;31.30;91.00;;;;;;5042585;28;20036;-67
2022/04/11 04:15:49;;;;;;;3.90;0.88;;;31.30;90.50;;;;;;5040802;28;20029;-70
2022/04/11 04:18:16;;;;;;;1.42;0.70;;;31.50;90.50;;;;;;5041090;28;20025;-69
2022/04/11 04:20:43;;;;;;;1.85;0.80;;;31.50;90.50;;;;;;5041435;28;20025;-72
2022/04/11 04:23:10;;;;;;;2.25;0.55;;;31.50;90.40;;;;;;5041773;28;20028;-68
2022/04/11 04:25:38;;;;;;;2.53;0.90;;;31.50;90.20;;;;;;5042425;28;20379;-69
2022/04/11 04:28:05;;;;;;;2.72;1.52;;;31.40;90.10;;;;;;5043552;28;20033;-69
2022/04/11 04:30:32;;;;;;;2.05;0.90;;;31.30;91.30;;;;;;5040764;28;20040;-66
2022/04/11 04:32:59;;;;;;;1.20;0.70;;;31.60;90.50;;;;;;5041506;28;20024;-70
2022/04/11 04:35:27;;;;;;;1.30;0.63;;;31.70;90.50;;;;;;5038143;28;20020;-68
2022/04/11 04:37:53;;;;;;;2.47;0.80;;;31.30;91.00;;;;;;5040178;28;20017;-69
2022/04/11 04:40:21;;;;;;;4.03;0.70;;;31.00;90.60;;;;;;5040330;28;20059;-69
2022/04/11 04:42:48;;;;;;;1.25;0.60;;;30.90;90.60;;;;;;5037128;28;20256;-69
2022/04/11 04:45:15;;;;;;;2.70;1.00;;;30.90;91.00;;;;;;5035645;28;20478;-66
2022/04/11 04:47:42;;;;;;;1.13;0.60;;;31.20;90.60;;;;;;5042955;28;20044;-66
2022/04/11 04:50:09;;;;;;;3.65;1.60;;;31.50;90.20;;;;;;5041072;28;20086;-70
2022/04/11 04:52:40;;;;;;;1.65;0.70;;;31.70;91.10;;;;;;5041072;28;20032;-70
2022/04/11 04:55:07;;;;;;;2.85;0.80;;;31.90;89.70;;;;;;5042896;28;20025;-69
2022/04/11 04:57:35;;;;;;;4.43;1.13;;;31.80;90.00;;;;;;5040683;28;20025;-69
2022/04/11 05:00:03;;;;;;;4.43;1.15;;;31.60;90.80;;;;;;5040843;28;20025;-66
2022/04/11 05:02:39;;;;;;;4.25;2.50;;;31.50;90.10;;;;;;5040815;28;20823;-70
2022/04/11 05:05:08;;;;;;;1.77;1.05;;;31.50;90.60;;;;;;5040932;28;20747;-67
2022/04/11 05:07:35;;;;;;;4.10;0.85;;;31.70;91.40;;;;;;5038078;28;20031;-66
2022/04/11 05:10:06;;;;;;;3.35;1.50;;;31.90;90.60;;;;;;5035301;28;20041;-69
2022/04/11 05:12:47;;;;;;;1.35;0.60;;;32.10;88.30;;;;;;5037024;28;20032;-67
2022/04/11 05:15:15;;;;;;;2.53;0.70;;;31.90;89.40;;;;;;5037721;28;20586;-66
2022/04/11 05:17:42;;;;;;;1.95;0.70;;;31.90;89.60;;;;;;5038068;28;20373;-70
2022/04/11 05:20:10;;;;;;;1.75;0.52;;;32.00;90.10;;;;;;5037979;28;20047;-67
2022/04/11 05:22:38;;;;;;;3.53;1.00;;;31.90;90.40;;;;;;5036472;28;20033;-67
2022/04/11 05:25:06;;;;;;;1.42;1.00;;;31.30;91.60;;;;;;5036164;28;20024;-63
2022/04/11 05:27:33;;;;;;;3.22;1.30;;;30.80;92.80;;;;;;5036730;28;20115;-67
2022/04/11 05:30:00;;;;;;;1.80;1.38;;;30.30;93.70;;;;;;5035438;28;20083;-65
2022/04/11 05:32:27;;;;;;;2.88;1.25;;;29.90;94.40;;;;;;5037217;28;20260;-68
2022/04/11 05:34:54;;;;;;;3.53;1.55;;;29.40;94.80;;;;;;5037302;28;20450;-67
2022/04/11 05:37:21;;;;;;;2.92;1.20;;;29.00;95.70;;;;;;5035555;28;20071;-69
2022/04/11 05:39:48;;;;;;;2.75;1.35;;;28.50;96.00;;;;;;5036274;28;20392;-71
2022/04/11 05:42:15;;;;;;;3.42;1.67;;;28.30;96.70;;;;;;5035765;28;20025;-65
2022/04/11 05:44:41;;;;;;;3.35;1.52;;;28.00;97.10;;;;;;5035631;28;20047;-67
2022/04/11 05:47:09;;;;;;;2.08;1.25;;;28.20;97.10;;;;;;5036152;28;20477;-69
2022/04/11 05:49:38;;;;;;;4.20;1.67;;;28.10;96.80;;;;;;5037630;28;20087;-66
2022/04/11 05:52:07;;;;;;;3.58;1.55;;;27.90;97.40;;;;;;5036773;28;20029;-66
2022/04/11 05:54:40;;;;;;;4.25;1.58;;;27.50;97.70;;;;;;5034270;28;20032;-70
2022/04/11 05:57:07;;;;;;;4.13;1.20;;;27.20;98.30;;;;;;5037069;28;20029;-67
2022/04/11 05:59:34;;;;;;;3.55;1.52;;;26.90;98.70;;;;;;5036596;28;20021;-66
2022/04/11 06:02:01;;;;;;;2.85;1.63;;;26.50;99.50;;;;;;5036975;28;20218;-73
2022/04/11 06:04:28;;;;;;;4.35;1.40;;;26.20;99.90;;;;;;5035408;28;20032;-67
2022/04/11 06:06:55;;;;;;;2.97;1.10;;;25.90;99.90;;;;;;5034569;28;20048;-68
2022/04/11 06:09:22;;;;;;;4.75;1.23;;;25.80;99.90;;;;;;5034853;28;20029;-70
2022/04/11 06:11:48;;;;;;;2.28;1.38;;;25.60;99.90;;;;;;5037098;28;20385;-68
2022/04/11 06:14:15;;;;;;;2.10;1.33;;;25.50;99.90;;;;;;5036469;28;20033;-68
2022/04/11 06:16:42;;;;;;;2.47;1.30;;;25.40;99.90;;;;;;5035545;28;20535;-68
2022/04/11 06:19:09;;;;;;;1.63;1.20;;;25.30;99.90;;;;;;5034037;28;21028;-69
2022/04/11 06:21:36;;;;;;;2.78;1.48;;;25.20;99.90;;;;;;5036889;28;20025;-69
2022/04/11 06:24:03;;;;;;;2.00;1.25;;;25.10;99.90;;;;;;5037669;28;20041;-70
2022/04/11 06:26:30;;;;;;;1.63;1.13;;;25.40;98.80;;;;;;5034796;28;20021;-70
2022/04/11 06:28:57;;;;;;;3.05;1.50;;;25.80;97.80;;;;;;5035108;28;20111;-69
2022/04/11 06:31:24;;;;;;;4.25;1.17;;;25.60;98.70;;;;;;5036640;28;20025;-69
2022/04/11 06:33:51;;;;;;;2.05;1.20;;;25.50;98.30;;;;;;5035315;28;20040;-67
2022/04/11 06:36:18;;;;;;;3.53;1.17;;;25.30;98.90;;;;;;5037710;28;20020;-67
2022/04/11 06:38:45;;;;;;;4.43;1.20;;;25.30;98.90;;;;;;5037053;28;20095;-68
2022/04/11 06:41:12;;;;;;;2.15;1.13;;;25.90;98.70;;;;;;5032794;28;20491;-66
2022/04/11 06:43:39;;;;;;;3.35;1.15;;;26.40;98.10;;;;;;5032494;28;20432;-68
2022/04/11 06:46:06;;;;;;;1.55;1.35;;;26.60;98.00;;;;;;5036703;28;20399;-65
2022/04/11 06:48:33;;;;;;;4.07;1.38;;;27.00;97.80;;;;;;5036809;28;20135;-68
2022/04/11 06:51:00;;;;;;;3.83;1.20;;;26.60;98.80;;;;;;5035042;28;20029;-68
2022/04/11 06:53:27;;;;;;;4.97;1.67;;;26.30;99.80;;;;;;5034521;28;20032;-69
2022/04/11 06:55:54;;;;;;;4.95;1.25;;;26.40;99.90;;;;;;5036169;28;20096;-70
2022/04/11 06:58:21;;;;;;;4.85;1.88;;;26.50;99.90;;;;;;5033848;28;20056;-70
2022/04/11 07:00:48;;;;;;;3.35;1.45;;;26.50;99.90;;;;;;5037123;28;20573;-70
2022/04/11 07:03:15;;;;;;;4.32;1.98;;;26.50;99.90;;;;;;5035648;28;20044;-67
2022/04/11 07:05:42;;;;;;;3.33;1.48;;;26.20;99.90;;;;;;5034944;28;20651;-70
2022/04/11 07:08:09;;;;;;;5.70;1.42;;;25.50;99.90;;;;;;5035742;28;20029;-69
2022/04/11 07:10:40;;;;;;;5.57;1.70;;;24.90;99.90;;;;;;5035155;28;20086;-69
2022/04/11 07:13:07;;;;;;;3.42;1.73;;;24.50;99.90;;;;;;5036181;28;20032;-69
2022/04/11 07:15:34;;;;;;;3.83;1.58;;;24.10;99.90;;;;;;5037454;28;20029;-67
2022/04/11 07:18:01;;;;;;;5.05;1.77;;;23.80;99.90;;;;;;5039074;28;20581;-67
2022/04/11 07:20:28;;;;;;;6.47;1.95;;;23.60;99.90;;;;;;5040255;28;20469;-68
2022/04/11 07:22:55;;;;;;;4.45;1.70;;;23.40;99.90;;;;;;5040500;28;20033;-67
2022/04/11 07:25:25;;;;;;;8.02;1.95;;;23.20;99.90;;;;;;5040019;28;20099;-67
2022/04/11 07:27:55;;;;;;;5.07;2.80;;;23.10;99.90;;;;;;5039071;28;20159;-68
2022/04/11 07:30:22;;;;;;;7.32;2.63;;;23.10;99.90;;;;;;5039668;28;20029;-68
2022/04/11 07:32:50;;;;;;;7.47;2.63;;;23.00;99.90;;;;;;5038827;28;20094;-67
2022/04/11 07:35:17;;;;;;;10.80;3.00;;;23.00;99.90;;;;;;5039496;28;20809;-68
2022/04/11 07:37:44;;;;;;;11.27;3.65;;;22.80;99.90;;;;;;5042015;28;20025;-68
2022/04/11 07:40:11;;;;;;;7.38;3.20;;;22.80;99.90;;;;;;5040657;28;20037;-70
2022/04/11 07:42:38;;;;;;;9.18;3.45;;;22.70;99.90;;;;;;5041508;28;20061;-68
2022/04/11 07:45:06;;;;;;;8.50;4.07;;;22.70;99.90;;;;;;5039678;28;20402;-68
2022/04/11 07:47:33;;;;;;;14.98;3.88;;;22.60;99.90;;;;;;5041704;28;20029;-68
2022/04/11 07:50:00;;;;;;;11.27;3.95;;;22.60;99.90;;;;;;5041527;28;20467;-67
2022/04/11 07:52:27;;;;;;;9.70;3.92;;;22.60;99.90;;;;;;5040891;28;20442;-68
2022/04/11 07:54:54;;;;;;;14.80;4.40;;;22.60;99.90;;;;;;5038202;28;20052;-66
2022/04/11 07:57:21;;;;;;;15.00;4.07;;;22.60;99.90;;;;;;5041505;28;20028;-67
2022/04/11 07:59:48;;;;;;;19.60;5.53;;;22.60;99.90;;;;;;5040371;28;20514;-66
2022/04/11 08:02:23;;;;;;;12.32;5.53;;;22.60;99.90;;;;;;5040993;28;20055;-67
2022/04/11 08:04:49;;;;;;;17.10;5.72;;;22.60;99.90;;;;;;5042814;28;20044;-70
2022/04/11 08:07:16;;;;;;;11.77;5.13;;;22.60;99.90;;;;;;5043601;28;20033;-66
2022/04/11 08:09:43;;;;;;;15.02;5.70;;;22.60;99.90;;;;;;5042282;28;20484;-66
2022/04/11 08:12:10;;;;;;;13.35;6.15;;;22.60;99.90;;;;;;5041028;28;20074;-70
2022/04/11 08:14:37;;;;;;;14.05;6.38;;;22.60;99.90;;;;;;5043277;28;20021;-69
2022/04/11 08:17:05;;;;;;;15.00;7.00;;;22.60;99.90;;;;;;5043753;28;20029;-68
2022/04/11 08:19:32;;;;;;;18.85;7.07;;;22.70;99.90;;;;;;5043747;28;20440;-67
2022/04/11 08:21:59;;;;;;;13.73;7.25;;;22.70;99.90;;;;;;5041632;28;20828;-67
2022/04/11 08:24:26;;;;;;;17.05;7.32;;;22.70;99.90;;;;;;5042827;28;20110;-67
2022/04/11 08:26:53;;;;;;;17.10;7.32;;;22.70;99.90;;;;;;5041242;28;20106;-68
2022/04/11 08:29:21;;;;;;;19.42;7.40;;;22.70;99.90;;;;;;5040348;28;20072;-69
2022/04/11 08:31:48;;;;;;;16.38;8.27;;;22.70;99.90;;;;;;5040797;28;20167;-69
2022/04/11 08:34:15;;;;;;;17.15;8.20;;;22.70;99.90;;;;;;5042961;28;20568;-70
2022/04/11 08:36:43;;;;;;;18.20;8.20;;;22.70;99.90;;;;;;5042881;28;20029;-71
2022/04/11 08:39:11;;;;;;;17.02;8.43;;;22.60;99.90;;;;;;5042734;28;20479;-69
2022/04/11 08:41:38;;;;;;;17.55;8.48;;;22.50;99.90;;;;;;5040781;28;20029;-72
2022/04/11 08:44:06;;;;;;;20.35;9.05;;;22.40;99.90;;;;;;5041467;28;20028;-70
2022/04/11 08:46:34;;;;;;;20.40;9.88;;;22.40;99.90;;;;;;5042795;28;20040;-71
2022/04/11 08:49:03;;;;;;;21.70;9.75;;;22.20;99.90;;;;;;5039945;28;20021;-70
2022/04/11 08:51:36;;;;;;;18.50;8.60;;;22.20;99.90;;;;;;5043522;28;20029;-69
2022/04/11 08:54:05;;;;;;;20.70;9.48;;;22.10;99.90;;;;;;5043351;28;20021;-69
2022/04/11 08:56:34;;;;;;;17.48;7.82;;;22.00;99.90;;;;;;5044296;28;20384;-71
2022/04/11 08:59:02;;;;;;;21.00;7.78;;;21.90;99.90;;;;;;5042586;28;20028;-67
2022/04/11 09:01:29;;;;;;;19.30;8.68;;;21.80;99.90;;;;;;5043452;28;20550;-73
2022/04/11 09:03:56;;;;;;;18.40;8.05;;;21.60;99.90;;;;;;5041850;28;20079;-68
2022/04/11 09:06:24;;;;;;;21.75;7.28;;;21.70;99.90;;;;;;5041606;28;20372;-66
2022/04/11 09:08:54;;;;;;;15.35;7.47;;;21.60;99.90;;;;;;5040239;28;20028;-67
2022/04/11 09:11:37;;;;;;;19.27;6.53;;;21.50;99.90;;;;;;5042040;28;20052;-69
2022/04/11 09:14:06;;;;;;;16.48;6.68;;;21.40;99.90;;;;;;5039903;28;20454;-72
2022/04/11 09:16:53;;;;;;;20.42;7.13;;;21.40;99.90;;;;;;5038732;28;20308;-69
2022/04/11 09:19:24;;;;;;;15.93;6.55;;;21.50;99.90;;;;;;5036681;28;20234;-69
2022/04/11 09:21:54;;;;;;;15.90;7.40;;;21.50;99.90;;;;;;5037572;28;20035;-71
2022/04/11 09:24:24;;;;;;;19.95;7.53;;;21.50;99.90;;;;;;5034602;28;20021;-74
2022/04/11 09:26:54;;;;;;;16.85;6.57;;;21.50;99.90;;;;;;5035562;28;20044;-73
2022/04/11 09:29:31;;;;;;;15.93;6.32;;;21.40;99.90;;;;;;5037855;28;20033;-73
2022/04/11 09:32:04;;;;;;;17.95;6.53;;;21.40;99.90;;;;;;5036918;28;20420;-67
2022/04/11 09:34:31;;;;;;;15.50;6.75;;;21.50;99.90;;;;;;5037019;28;20083;-68
2022/04/11 09:37:01;;;;;;;20.98;7.55;;;21.50;99.90;;;;;;5036268;28;20866;-73
2022/04/11 09:39:33;;;;;;;15.93;5.47;;;21.50;99.90;;;;;;5035379;28;20048;-68
2022/04/11 09:42:04;;;;;;;16.77;5.95;;;21.50;99.90;;;;;;5036037;28;20037;-69
2022/04/11 09:44:34;;;;;;;14.50;5.53;;;21.40;99.90;;;;;;5033030;28;20040;-75
2022/04/11 09:47:05;;;;;;;13.23;5.65;;;21.50;99.90;;;;;;5036563;28;20588;-75
2022/04/11 09:49:33;;;;;;;13.95;5.97;;;21.50;99.90;;;;;;5036183;28;20451;-69
2022/04/11 09:52:13;;;;;;;15.95;5.97;;;21.50;99.90;;;;;;5037110;28;20143;-70
2022/04/11 09:54:46;;;;;;;13.70;5.85;;;21.50;99.90;;;;;;5036686;28;20036;-71
2022/04/11 09:57:17;;;;;;;18.15;6.47;;;21.50;99.90;;;;;;5036229;28;20029;-71
2022/04/11 09:59:45;;;;;;;25.73;6.38;;;21.60;99.90;;;;;;5037016;28;20036;-70
2022/04/11 10:02:17;;;;;;;15.75;6.75;;;21.60;99.90;;;;;;5036615;28;20024;-75
2022/04/11 10:04:46;;;;;;;16.63;6.63;;;21.60;99.90;;;;;;5037795;28;20055;-72
2022/04/11 10:07:13;;;;;;;15.50;6.25;;;21.70;99.90;;;;;;5037722;28;20980;-74
2022/04/11 10:09:41;;;;;;;15.32;6.68;;;21.60;99.90;;;;;;5035422;28;20052;-70
2022/04/11 10:12:10;;;;;;;19.02;6.18;;;21.60;99.90;;;;;;5039360;28;20128;-70
2022/04/11 10:14:40;;;;;;;17.25;9.07;;;21.60;99.90;;;;;;5037084;28;20025;-76
2022/04/11 10:17:07;;;;;;;18.85;6.57;;;21.70;99.90;;;;;;5037658;28;20349;-70
2022/04/11 10:19:38;;;;;;;23.85;9.25;;;21.60;99.90;;;;;;5036159;28;20053;-72
2022/04/11 10:22:12;;;;;;;16.70;5.45;;;21.60;99.90;;;;;;5038942;28;20111;-70
2022/04/11 10:24:57;;;;;;;13.20;5.07;;;21.60;99.90;;;;;;5040326;28;20486;-72
2022/04/11 10:27:28;;;;;;;20.02;5.07;;;21.60;99.90;;;;;;5036598;28;20029;-71
2022/04/11 10:29:56;;;;;;;15.90;5.72;;;21.60;99.90;;;;;;5042554;28;20095;-72
2022/04/11 10:32:28;;;;;;;13.70;5.10;;;21.60;99.90;;;;;;5043615;28;20430;-72
2022/04/11 10:34:56;;;;;;;16.17;5.25;;;21.60;99.90;;;;;;5051348;28;20025;-68
2022/04/11 10:37:25;;;;;;;14.80;5.25;;;21.60;99.90;;;;;;5036282;22;20049;-70
2022/04/11 10:39:54;;;;;;;20.35;5.53;;;21.60;99.90;;;;;;5022188;28;20060;-71
2022/04/11 10:42:25;;;;;;;12.25;4.45;;;21.50;99.90;;;;;;5019227;28;20096;-70
2022/04/11 10:44:59;;;;;;;17.50;5.25;;;21.40;99.90;;;;;;5024479;28;20029;-70
2022/04/11 10:47:31;;;;;;;14.48;4.90;;;21.30;99.90;;;;;;5021818;28;20026;-70
2022/04/11 10:50:01;;;;;;;14.05;5.10;;;21.30;99.90;;;;;;5014355;28;20435;-69
2022/04/11 10:52:32;;;;;;;14.85;5.75;;;21.40;99.90;;;;;;5009032;28;20028;-70
2022/04/11 10:55:15;;;;;;;11.90;5.50;;;21.30;99.90;;;;;;5011770;28;20040;-71
2022/04/11 10:57:53;;;;;;;16.85;6.47;;;21.30;99.90;;;;;;5015653;28;20325;-71
2022/04/11 11:00:34;;;;;;;13.23;4.88;;;21.40;99.90;;;;;;5012641;28;20040;-70
2022/04/11 11:03:06;;;;;;;14.85;5.22;;;21.40;99.90;;;;;;5013391;28;20112;-72
2022/04/11 11:05:43;;;;;;;14.77;5.18;;;21.40;99.90;;;;;;5010221;28;20034;-70
2022/04/11 11:08:11;;;;;;;14.07;4.70;;;21.40;99.90;;;;;;5011384;28;20061;-71
2022/04/11 11:10:43;;;;;;;21.70;9.13;;;21.40;99.90;;;;;;5010462;28;20079;-70
2022/04/11 11:13:28;;;;;;;;;;;21.30;99.90;;;;;;5013513;28;20038;-71
2022/04/11 11:15:56;;;;;;;12.55;5.18;;;21.30;99.90;;;;;;5014330;28;19944;-70
2022/04/11 11:18:24;;;;;;;16.67;5.85;;;21.30;99.90;;;;;;5012380;28;20026;-68
2022/04/11 11:20:58;;;;;;;14.52;5.28;;;21.20;99.90;;;;;;5011576;28;20025;-70
2022/04/11 11:23:31;;;;;;;10.15;4.75;;;21.30;99.90;;;;;;5013849;28;20722;-69
2022/04/11 11:26:13;;;;;;;15.75;5.60;;;21.20;99.90;;;;;;5010847;28;20526;-68
2022/04/11 11:28:44;;;;;;;17.60;5.13;;;21.20;99.90;;;;;;5013156;28;20123;-68
2022/04/11 11:31:11;;;;;;;18.00;5.97;;;21.10;99.90;;;;;;5020264;28;20080;-70
2022/04/11 11:33:39;;;;;;;16.55;5.13;;;21.10;99.90;;;;;;5019980;28;20130;-68
2022/04/11 11:36:08;;;;;;;21.17;5.90;;;21.10;99.90;;;;;;5018634;28;20733;-68
2022/04/11 11:38:35;;;;;;;18.52;5.40;;;21.10;99.90;;;;;;5016245;28;20084;-70
2022/04/11 11:41:04;;;;;;;23.98;5.80;;;21.10;99.90;;;;;;5017871;28;20332;-71
2022/04/11 11:43:31;;;;;;;14.73;5.15;;;21.20;99.90;;;;;;5013244;28;20388;-70
2022/04/11 11:46:03;;;;;;;16.17;6.10;;;21.10;99.90;;;;;;5014865;28;20034;-70
2022/04/11 11:48:32;;;;;;;15.77;5.45;;;21.00;99.90;;;;;;5020409;28;20310;-70
2022/04/11 11:51:02;;;;;;;16.00;4.93;;;21.00;99.90;;;;;;5017810;28;20573;-71
2022/04/11 11:53:51;;;;;;;16.80;6.10;;;20.90;99.90;;;;;;5021888;28;20083;-68
2022/04/11 11:56:17;;;;;;;20.05;6.28;;;20.90;99.90;;;;;;5018073;28;20052;-69
2022/04/11 11:58:45;;;;;;;15.68;6.45;;;20.90;99.90;;;;;;5019187;28;20025;-70
2022/04/11 12:01:13;;;;;;;14.15;5.72;;;20.90;99.90;;;;;;5017938;28;20404;-70
2022/04/11 12:06:33;;;;;;;18.83;7.37;;;20.90;99.90;;;;;;5019780;28;20117;-70
2022/04/11 12:09:04;;;;;;;15.27;6.22;;;20.90;99.90;;;;;;5020107;28;20270;-70
2022/04/11 12:11:32;;;;;;;17.02;7.60;;;20.80;99.90;;;;;;5018299;28;20490;-68
2022/04/11 12:14:04;;;;;;;20.25;6.20;;;20.80;99.90;;;;;;5023950;28;20121;-68
2022/04/11 12:16:33;;;;;;;16.73;6.28;;;20.80;99.90;;;;;;5025054;28;20399;-70
2022/04/11 12:19:02;;;;;;;12.32;5.53;;;20.80;99.90;;;;;;5016623;28;20022;-68
2022/04/11 12:21:30;;;;;;;14.32;6.88;;;20.70;99.90;;;;;;5020445;28;20553;-70
2022/04/11 12:23:57;;;;;;;14.43;6.43;;;20.50;99.90;;;;;;5018643;28;20029;-68
2022/04/11 12:26:31;;;;;;;18.63;6.90;;;20.30;99.90;;;;;;5032783;28;20120;-67
2022/04/11 12:29:08;;;;;;;12.30;5.80;;;20.30;99.90;;;;;;4687991;28;9999790;-67
2022/04/11 12:31:36;;;;;;;20.35;7.07;;;20.30;99.90;;;;;;5026599;28;20029;-68
2022/04/11 12:34:13;;;;;;;19.75;7.53;;;20.30;99.90;;;;;;5033930;28;20471;-69
2022/04/11 12:37:02;;;;;;;13.65;6.45;;;20.20;99.90;;;;;;5023477;28;20022;-68
2022/04/11 12:39:30;;;;;;;14.50;6.97;;;20.30;99.90;;;;;;5029602;28;20036;-70
2022/04/11 12:41:57;;;;;;;13.13;6.05;;;20.30;99.90;;;;;;5034339;28;20026;-70
2022/04/11 12:44:35;;;;;;;11.98;5.80;;;20.30;99.90;;;;;;5032837;28;20492;-69
2022/04/11 12:47:02;;;;;;;15.82;5.70;;;20.30;99.90;;;;;;5027098;28;20041;-70
2022/04/11 12:49:47;;;;;;;20.13;6.30;;;20.40;99.90;;;;;;5029149;28;20437;-70
2022/04/11 12:52:20;;;;;;;11.98;5.05;;;20.50;99.90;;;;;;5028866;28;20026;-69
2022/04/11 12:54:52;;;;;;;11.70;4.78;;;20.50;99.90;;;;;;5023214;28;20607;-69